createdAt,value
2018-05-06T00:00:04.854Z,0.00
2018-05-06T00:01:04.831Z,0.00
2018-05-06T00:02:04.807Z,0.00
2018-05-06T00:03:04.792Z,0.00
2018-05-06T00:04:04.777Z,0.00
2018-05-06T00:05:04.789Z,0.00
2018-05-06T00:06:04.737Z,0.00
2018-05-06T00:07:04.726Z,0.00
2018-05-06T00:08:04.706Z,0.00
2018-05-06T00:09:04.706Z,0.00
2018-05-06T00:10:04.665Z,0.00
2018-05-06T00:11:04.671Z,0.00
2018-05-06T00:12:04.647Z,0.00
2018-05-06T00:13:04.631Z,0.00
2018-05-06T00:14:04.594Z,0.00
2018-05-06T00:15:04.578Z,0.00
2018-05-06T00:16:04.560Z,0.00
2018-05-06T00:17:04.564Z,0.00
2018-05-06T00:18:04.548Z,0.00
2018-05-06T00:19:04.515Z,0.00
2018-05-06T00:20:04.522Z,0.00
2018-05-06T00:21:04.503Z,0.00
2018-05-06T00:22:04.530Z,0.00
2018-05-06T00:23:04.439Z,0.00
2018-05-06T00:24:04.410Z,0.00
2018-05-06T00:25:04.394Z,0.00
2018-05-06T00:26:04.404Z,0.00
2018-05-06T00:27:04.367Z,0.00
2018-05-06T00:28:04.368Z,0.00
2018-05-06T00:29:04.339Z,0.00
2018-05-06T00:30:04.398Z,0.00
2018-05-06T00:31:04.283Z,0.00
2018-05-06T00:32:04.266Z,0.00
2018-05-06T00:33:04.277Z,0.00
2018-05-06T00:34:04.241Z,0.00
2018-05-06T00:35:04.208Z,0.00
2018-05-06T00:36:04.195Z,0.00
2018-05-06T00:37:04.172Z,0.00
2018-05-06T00:38:04.199Z,0.00
2018-05-06T00:39:04.151Z,0.00
2018-05-06T00:40:04.123Z,0.00
2018-05-06T00:41:04.138Z,0.00
2018-05-06T00:42:04.119Z,0.00
2018-05-06T00:43:04.070Z,0.00
2018-05-06T00:44:04.092Z,0.00
2018-05-06T00:45:04.050Z,0.00
2018-05-06T00:46:04.008Z,0.00
2018-05-06T00:47:03.989Z,0.00
2018-05-06T00:48:03.969Z,0.00
2018-05-06T00:49:03.982Z,0.00
2018-05-06T00:50:03.965Z,0.00
2018-05-06T00:51:03.943Z,0.00
2018-05-06T00:52:03.911Z,0.00
2018-05-06T00:53:03.889Z,0.00
2018-05-06T00:54:03.881Z,0.00
2018-05-06T00:55:03.847Z,0.00
2018-05-06T00:56:03.831Z,0.00
2018-05-06T00:57:03.804Z,0.00
2018-05-06T00:58:03.795Z,0.00
2018-05-06T00:59:03.768Z,0.00
2018-05-06T01:00:03.753Z,0.00
2018-05-06T01:01:03.749Z,0.00
2018-05-06T01:02:03.721Z,0.00
2018-05-06T01:03:03.698Z,0.00
2018-05-06T01:04:03.714Z,0.00
2018-05-06T01:05:03.713Z,0.00
2018-05-06T01:06:03.663Z,0.00
2018-05-06T01:07:03.622Z,0.00
2018-05-06T01:08:03.604Z,0.00
2018-05-06T01:09:03.598Z,0.00
2018-05-06T01:10:03.575Z,0.00
2018-05-06T01:11:03.542Z,0.00
2018-05-06T01:12:03.541Z,0.00
2018-05-06T01:13:03.519Z,0.00
2018-05-06T01:14:03.497Z,0.00
2018-05-06T01:15:03.500Z,0.00
2018-05-06T01:16:03.456Z,0.00
2018-05-06T01:17:03.442Z,0.00
2018-05-06T01:18:03.421Z,0.00
2018-05-06T01:19:03.413Z,0.00
2018-05-06T01:20:03.389Z,0.00
2018-05-06T01:21:03.379Z,0.00
2018-05-06T01:22:03.365Z,0.00
2018-05-06T01:23:03.322Z,0.00
2018-05-06T01:24:03.319Z,0.00
2018-05-06T01:25:03.316Z,0.00
2018-05-06T01:26:03.278Z,0.00
2018-05-06T01:27:03.274Z,0.00
2018-05-06T01:28:03.234Z,0.00
2018-05-06T01:29:03.211Z,0.00
2018-05-06T01:30:03.189Z,0.00
2018-05-06T01:31:03.264Z,0.00
2018-05-06T01:32:03.192Z,0.00
2018-05-06T01:33:03.173Z,0.00
2018-05-06T01:34:03.150Z,0.00
2018-05-06T01:35:03.106Z,0.00
2018-05-06T01:36:03.092Z,0.00
2018-05-06T01:37:03.061Z,0.00
2018-05-06T01:38:03.051Z,0.00
2018-05-06T01:39:03.020Z,0.00
2018-05-06T01:40:03.107Z,0.00
2018-05-06T01:41:03.014Z,0.00
2018-05-06T01:42:02.986Z,0.00
2018-05-06T01:43:02.959Z,0.00
2018-05-06T01:44:02.956Z,0.00
2018-05-06T01:45:02.916Z,0.00
2018-05-06T01:46:02.892Z,0.00
2018-05-06T01:47:02.879Z,0.00
2018-05-06T01:48:02.937Z,0.00
2018-05-06T01:49:02.834Z,0.00
2018-05-06T01:50:02.916Z,0.00
2018-05-06T01:51:02.812Z,0.00
2018-05-06T01:52:02.776Z,0.00
2018-05-06T01:53:02.759Z,0.00
2018-05-06T01:54:02.745Z,0.00
2018-05-06T01:55:02.724Z,0.00
2018-05-06T01:56:02.716Z,0.00
2018-05-06T01:57:02.698Z,0.00
2018-05-06T01:58:02.677Z,0.00
2018-05-06T01:59:02.664Z,0.00
2018-05-06T02:00:02.629Z,0.00
2018-05-06T02:01:02.617Z,0.00
2018-05-06T02:02:02.585Z,0.00
2018-05-06T02:03:02.574Z,0.00
2018-05-06T02:04:02.554Z,0.00
2018-05-06T02:05:02.532Z,0.00
2018-05-06T02:06:02.535Z,0.00
2018-05-06T02:07:02.501Z,0.00
2018-05-06T02:08:02.479Z,0.00
2018-05-06T02:09:02.492Z,0.00
2018-05-06T02:10:02.448Z,0.00
2018-05-06T02:11:02.419Z,0.00
2018-05-06T02:12:02.399Z,0.00
2018-05-06T02:13:02.394Z,0.00
2018-05-06T02:14:02.364Z,0.00
2018-05-06T02:15:02.363Z,0.00
2018-05-06T02:16:02.386Z,0.00
2018-05-06T02:17:02.305Z,0.00
2018-05-06T02:18:02.303Z,0.00
2018-05-06T02:19:02.269Z,0.00
2018-05-06T02:20:02.270Z,0.00
2018-05-06T02:21:02.229Z,0.00
2018-05-06T02:22:02.222Z,0.00
2018-05-06T02:23:02.198Z,0.00
2018-05-06T02:24:02.172Z,0.00
2018-05-06T02:25:02.147Z,0.00
2018-05-06T02:26:02.149Z,0.00
2018-05-06T02:27:02.126Z,0.00
2018-05-06T02:28:02.100Z,0.00
2018-05-06T02:29:02.083Z,0.00
2018-05-06T02:30:02.092Z,0.00
2018-05-06T02:31:02.062Z,0.00
2018-05-06T02:32:02.038Z,0.00
2018-05-06T02:33:02.025Z,0.00
2018-05-06T02:34:01.987Z,0.00
2018-05-06T02:35:01.968Z,0.00
2018-05-06T02:36:01.946Z,0.00
2018-05-06T02:37:01.934Z,0.00
2018-05-06T02:38:01.926Z,0.00
2018-05-06T02:39:01.887Z,0.00
2018-05-06T02:40:01.866Z,0.00
2018-05-06T02:41:01.851Z,0.00
2018-05-06T02:42:01.835Z,0.00
2018-05-06T02:43:01.814Z,0.00
2018-05-06T02:44:01.810Z,0.00
2018-05-06T02:45:01.782Z,0.00
2018-05-06T02:46:01.753Z,0.00
2018-05-06T02:47:01.741Z,0.00
2018-05-06T02:48:01.708Z,0.00
2018-05-06T02:49:01.695Z,0.00
2018-05-06T02:50:01.667Z,0.00
2018-05-06T02:51:01.687Z,0.00
2018-05-06T02:52:01.636Z,0.00
2018-05-06T02:53:01.649Z,0.00
2018-05-06T02:54:01.615Z,0.00
2018-05-06T02:55:01.603Z,0.00
2018-05-06T02:56:01.637Z,0.00
2018-05-06T02:57:01.564Z,0.00
2018-05-06T02:58:01.541Z,0.00
2018-05-06T02:59:01.504Z,0.00
2018-05-06T03:00:01.493Z,0.00
2018-05-06T03:01:01.478Z,0.00
2018-05-06T03:02:01.437Z,0.00
2018-05-06T03:03:02.117Z,0.00
2018-05-06T03:04:01.401Z,0.00
2018-05-06T03:05:01.406Z,0.00
2018-05-06T03:06:01.368Z,0.00
2018-05-06T03:07:01.396Z,0.00
2018-05-06T03:08:01.456Z,0.00
2018-05-06T03:09:01.329Z,0.00
2018-05-06T03:10:01.349Z,0.00
2018-05-06T03:11:01.344Z,0.00
2018-05-06T03:12:01.304Z,0.00
2018-05-06T03:13:01.237Z,0.00
2018-05-06T03:14:01.233Z,0.00
2018-05-06T03:15:01.202Z,0.00
2018-05-06T03:16:01.168Z,0.00
2018-05-06T03:17:01.150Z,0.00
2018-05-06T03:18:01.164Z,4.00
2018-05-06T03:19:01.145Z,4.00
2018-05-06T03:20:01.097Z,0.00
2018-05-06T03:21:01.065Z,0.00
2018-05-06T03:22:01.054Z,4.00
2018-05-06T03:23:01.029Z,0.00
2018-05-06T03:24:01.031Z,4.00
2018-05-06T03:25:01.017Z,0.00
2018-05-06T03:26:00.973Z,4.00
2018-05-06T03:27:01.057Z,4.00
2018-05-06T03:28:00.932Z,4.00
2018-05-06T03:29:00.918Z,4.00
2018-05-06T03:30:00.891Z,8.00
2018-05-06T03:31:00.880Z,8.00
2018-05-06T03:32:00.857Z,12.00
2018-05-06T03:33:00.857Z,16.00
2018-05-06T03:34:00.826Z,16.00
2018-05-06T03:35:00.796Z,16.00
2018-05-06T03:36:00.797Z,20.00
2018-05-06T03:37:00.795Z,24.00
2018-05-06T03:38:00.760Z,28.00
2018-05-06T03:39:00.729Z,28.00
2018-05-06T03:40:00.707Z,32.00
2018-05-06T03:41:00.680Z,36.00
2018-05-06T03:42:00.692Z,44.00
2018-05-06T03:43:00.639Z,52.00
2018-05-06T03:44:00.657Z,56.00
2018-05-06T03:45:00.627Z,64.00
2018-05-06T03:46:00.590Z,68.00
2018-05-06T03:47:00.571Z,76.00
2018-05-06T03:48:00.561Z,84.00
2018-05-06T03:49:00.531Z,96.00
2018-05-06T03:50:00.499Z,108.00
2018-05-06T03:51:00.481Z,116.00
2018-05-06T03:52:00.479Z,128.00
2018-05-06T03:53:00.447Z,140.00
2018-05-06T03:54:00.426Z,152.00
2018-05-06T03:55:00.402Z,164.00
2018-05-06T03:56:00.386Z,180.00
2018-05-06T03:57:00.375Z,192.00
2018-05-06T03:58:00.405Z,208.00
2018-05-06T03:59:00.326Z,228.00
2018-05-06T04:00:00.319Z,244.00
2018-05-06T04:01:00.282Z,260.00
2018-05-06T04:02:00.276Z,280.00
2018-05-06T04:03:00.322Z,300.00
2018-05-06T04:04:00.309Z,320.00
2018-05-06T04:05:00.212Z,340.00
2018-05-06T04:06:00.232Z,360.00
2018-05-06T04:07:00.239Z,384.00
2018-05-06T04:08:00.184Z,404.00
2018-05-06T04:09:00.148Z,424.00
2018-05-06T04:10:00.108Z,448.00
2018-05-06T04:11:00.100Z,472.00
2018-05-06T04:12:00.082Z,492.00
2018-05-06T04:13:00.053Z,516.00
2018-05-06T04:14:00.041Z,544.00
2018-05-06T04:15:00.037Z,568.00
2018-05-06T04:15:59.997Z,588.00
2018-05-06T04:16:59.980Z,616.00
2018-05-06T04:17:59.954Z,636.00
2018-05-06T04:18:59.928Z,660.00
2018-05-06T04:19:59.946Z,688.00
2018-05-06T04:20:59.892Z,712.00
2018-05-06T04:21:59.874Z,732.00
2018-05-06T04:22:59.864Z,760.00
2018-05-06T04:23:59.855Z,780.00
2018-05-06T04:24:59.820Z,808.00
2018-05-06T04:25:59.790Z,828.00
2018-05-06T04:26:59.772Z,852.00
2018-05-06T04:27:59.765Z,876.00
2018-05-06T04:28:59.728Z,900.00
2018-05-06T04:29:59.713Z,920.00
2018-05-06T04:30:59.693Z,944.00
2018-05-06T04:31:59.680Z,968.00
2018-05-06T04:32:59.652Z,988.00
2018-05-06T04:33:59.632Z,1008.00
2018-05-06T04:34:59.690Z,1032.00
2018-05-06T04:35:59.666Z,1052.00
2018-05-06T04:36:59.594Z,1080.00
2018-05-06T04:37:59.577Z,1100.00
2018-05-06T04:38:59.532Z,1120.00
2018-05-06T04:39:59.540Z,1144.00
2018-05-06T04:40:59.542Z,1164.00
2018-05-06T04:41:59.484Z,1188.00
2018-05-06T04:42:59.467Z,1208.00
2018-05-06T04:43:59.456Z,1224.00
2018-05-06T04:44:59.427Z,1248.00
2018-05-06T04:45:59.394Z,1264.00
2018-05-06T04:46:59.383Z,1284.00
2018-05-06T04:47:59.377Z,1304.00
2018-05-06T04:48:59.331Z,1324.00
2018-05-06T04:49:59.309Z,1344.00
2018-05-06T04:50:59.399Z,1364.00
2018-05-06T04:51:59.274Z,1380.00
2018-05-06T04:52:59.252Z,1396.00
2018-05-06T04:53:59.240Z,1416.00
2018-05-06T04:54:59.233Z,1436.00
2018-05-06T04:55:59.196Z,1452.00
2018-05-06T04:56:59.180Z,1468.00
2018-05-06T04:57:59.173Z,1488.00
2018-05-06T04:58:59.164Z,1500.00
2018-05-06T04:59:59.124Z,1520.00
2018-05-06T05:00:59.105Z,1536.00
2018-05-06T05:01:59.078Z,1556.00
2018-05-06T05:02:59.063Z,1572.00
2018-05-06T05:03:59.037Z,1588.00
2018-05-06T05:04:59.019Z,1608.00
2018-05-06T05:05:59.000Z,1624.00
2018-05-06T05:06:58.984Z,1644.00
2018-05-06T05:07:58.996Z,1660.00
2018-05-06T05:08:58.942Z,1676.00
2018-05-06T05:09:58.927Z,1692.00
2018-05-06T05:10:58.916Z,1712.00
2018-05-06T05:11:58.879Z,1732.00
2018-05-06T05:12:58.902Z,1744.00
2018-05-06T05:13:58.927Z,1760.00
2018-05-06T05:14:58.827Z,1780.00
2018-05-06T05:15:58.804Z,1792.00
2018-05-06T05:16:58.786Z,1808.00
2018-05-06T05:17:58.763Z,1824.00
2018-05-06T05:18:58.741Z,1840.00
2018-05-06T05:19:58.726Z,1856.00
2018-05-06T05:20:58.715Z,1872.00
2018-05-06T05:21:58.722Z,1892.00
2018-05-06T05:22:58.667Z,1908.00
2018-05-06T05:23:58.664Z,1928.00
2018-05-06T05:24:58.655Z,1948.00
2018-05-06T05:25:58.630Z,1968.00
2018-05-06T05:26:58.614Z,1984.00
2018-05-06T05:27:58.572Z,2008.00
2018-05-06T05:28:58.672Z,2028.00
2018-05-06T05:29:58.566Z,2048.00
2018-05-06T05:30:58.541Z,2072.00
2018-05-06T05:31:58.516Z,2108.00
2018-05-06T05:32:58.505Z,2144.00
2018-05-06T05:33:58.459Z,2180.00
2018-05-06T05:34:58.456Z,2208.00
2018-05-06T05:35:58.436Z,3632.00
2018-05-06T05:36:58.427Z,10640.00
2018-05-06T05:37:58.378Z,14496.00
2018-05-06T05:38:58.377Z,14304.00
2018-05-06T05:39:58.412Z,15264.00
2018-05-06T05:40:58.324Z,16448.00
2018-05-06T05:41:58.325Z,17952.00
2018-05-06T05:42:58.297Z,18784.00
2018-05-06T05:43:58.277Z,18976.00
2018-05-06T05:44:58.262Z,18592.00
2018-05-06T05:45:58.230Z,18208.00
2018-05-06T05:46:58.224Z,18080.00
2018-05-06T05:47:58.264Z,18016.00
2018-05-06T05:48:58.169Z,18880.00
2018-05-06T05:49:58.178Z,19776.00
2018-05-06T05:50:58.134Z,20480.00
2018-05-06T05:51:58.199Z,20992.00
2018-05-06T05:52:58.109Z,21504.00
2018-05-06T05:53:58.095Z,21856.00
2018-05-06T05:54:58.093Z,22176.00
2018-05-06T05:55:58.044Z,22880.00
2018-05-06T05:56:58.033Z,23264.00
2018-05-06T05:57:58.020Z,24384.00
2018-05-06T05:58:58.023Z,24416.00
2018-05-06T05:59:57.982Z,25600.00
2018-05-06T06:00:57.967Z,26496.00
2018-05-06T06:01:57.948Z,27328.00
2018-05-06T06:02:57.940Z,27680.00
2018-05-06T06:03:57.924Z,27136.00
2018-05-06T06:04:57.902Z,26400.00
2018-05-06T06:05:57.922Z,24960.00
2018-05-06T06:06:57.873Z,23680.00
2018-05-06T06:07:57.872Z,22752.00
2018-05-06T06:08:57.869Z,23104.00
2018-05-06T06:09:57.838Z,24064.00
2018-05-06T06:10:57.831Z,25920.00
2018-05-06T06:11:57.843Z,27264.00
2018-05-06T06:12:57.809Z,28736.00
2018-05-06T06:13:57.780Z,29600.00
2018-05-06T06:14:57.781Z,29824.00
2018-05-06T06:15:57.760Z,29504.00
2018-05-06T06:16:57.741Z,28608.00
2018-05-06T06:17:57.729Z,27264.00
2018-05-06T06:18:57.743Z,27264.00
2018-05-06T06:19:57.700Z,27840.00
2018-05-06T06:20:57.686Z,30464.00
2018-05-06T06:21:57.701Z,32416.00
2018-05-06T06:22:57.681Z,32960.00
2018-05-06T06:23:57.654Z,33344.00
2018-05-06T06:24:57.640Z,32128.00
2018-05-06T06:25:57.639Z,30272.00
2018-05-06T06:26:57.614Z,29152.00
2018-05-06T06:27:57.597Z,28896.00
2018-05-06T06:28:57.584Z,30144.00
2018-05-06T06:29:57.577Z,31776.00
2018-05-06T06:30:57.571Z,34240.00
2018-05-06T06:31:57.553Z,36672.00
2018-05-06T06:32:57.646Z,37376.00
2018-05-06T06:33:57.549Z,34496.00
2018-05-06T06:34:57.545Z,31776.00
2018-05-06T06:35:57.536Z,27904.00
2018-05-06T06:36:57.500Z,24928.00
2018-05-06T06:37:57.494Z,25472.00
2018-05-06T06:38:57.481Z,28416.00
2018-05-06T06:39:57.466Z,33344.00
2018-05-06T06:40:57.455Z,37184.00
2018-05-06T06:41:57.502Z,40320.00
2018-05-06T06:42:57.445Z,41248.00
2018-05-06T06:43:57.440Z,41056.00
2018-05-06T06:44:57.431Z,39232.00
2018-05-06T06:45:57.415Z,36096.00
2018-05-06T06:46:57.413Z,33568.00
2018-05-06T06:47:57.447Z,32224.00
2018-05-06T06:48:57.412Z,32832.00
2018-05-06T06:49:57.381Z,33504.00
2018-05-06T06:50:57.375Z,33952.00
2018-05-06T06:51:57.363Z,35584.00
2018-05-06T06:52:57.350Z,36384.00
2018-05-06T06:53:57.354Z,37280.00
2018-05-06T06:54:57.336Z,38272.00
2018-05-06T06:55:57.324Z,39616.00
2018-05-06T06:56:57.318Z,40000.00
2018-05-06T06:57:57.307Z,33728.00
2018-05-06T06:58:57.300Z,12756.00
2018-05-06T06:59:57.291Z,3140.00
2018-05-06T07:00:57.288Z,3020.00
2018-05-06T07:01:57.292Z,2968.00
2018-05-06T07:02:57.273Z,2928.00
2018-05-06T07:03:57.269Z,2896.00
2018-05-06T07:04:57.261Z,2856.00
2018-05-06T07:05:57.308Z,2816.00
2018-05-06T07:06:57.244Z,2800.00
2018-05-06T07:07:57.235Z,2788.00
2018-05-06T07:08:57.226Z,2780.00
2018-05-06T07:09:57.228Z,2772.00
2018-05-06T07:10:57.254Z,2768.00
2018-05-06T07:11:57.207Z,2768.00
2018-05-06T07:12:57.188Z,2776.00
2018-05-06T07:13:57.183Z,2792.00
2018-05-06T07:14:57.198Z,2828.00
2018-05-06T07:15:57.188Z,3008.00
2018-05-06T07:16:57.162Z,3692.00
2018-05-06T07:17:57.178Z,2776.00
2018-05-06T07:18:57.145Z,2748.00
2018-05-06T07:19:57.125Z,2740.00
2018-05-06T07:20:57.165Z,2732.00
2018-05-06T07:21:57.113Z,2732.00
2018-05-06T07:22:57.097Z,2724.00
2018-05-06T07:23:57.094Z,2720.00
2018-05-06T07:24:57.081Z,2720.00
2018-05-06T07:25:57.066Z,2716.00
2018-05-06T07:26:57.057Z,2716.00
2018-05-06T07:27:57.068Z,2724.00
2018-05-06T07:28:57.049Z,2712.00
2018-05-06T07:29:57.137Z,2708.00
2018-05-06T07:30:57.012Z,2704.00
2018-05-06T07:31:57.060Z,2704.00
2018-05-06T07:32:56.996Z,2696.00
2018-05-06T07:33:56.978Z,2696.00
2018-05-06T07:34:56.969Z,2692.00
2018-05-06T07:35:57.035Z,2692.00
2018-05-06T07:36:57.107Z,2692.00
2018-05-06T07:37:56.970Z,2692.00
2018-05-06T07:38:56.930Z,2692.00
2018-05-06T07:39:56.903Z,2688.00
2018-05-06T07:40:56.933Z,2684.00
2018-05-06T07:41:56.880Z,2688.00
2018-05-06T07:42:56.899Z,2688.00
2018-05-06T07:43:56.861Z,2692.00
2018-05-06T07:44:56.841Z,2688.00
2018-05-06T07:45:56.827Z,2692.00
2018-05-06T07:46:56.819Z,2692.00
2018-05-06T07:47:56.812Z,2696.00
2018-05-06T07:48:56.805Z,2688.00
2018-05-06T07:49:56.808Z,2684.00
2018-05-06T07:50:56.767Z,2676.00
2018-05-06T07:51:56.754Z,2680.00
2018-05-06T07:52:56.741Z,2676.00
2018-05-06T07:53:56.725Z,2672.00
2018-05-06T07:54:56.713Z,2668.00
2018-05-06T07:55:56.701Z,2672.00
2018-05-06T07:56:56.693Z,2668.00
2018-05-06T07:57:56.678Z,2672.00
2018-05-06T07:58:56.737Z,2672.00
2018-05-06T07:59:56.664Z,2664.00
2018-05-06T08:00:56.650Z,2668.00
2018-05-06T08:01:56.624Z,2668.00
2018-05-06T08:02:56.619Z,2668.00
2018-05-06T08:03:56.613Z,2668.00
2018-05-06T08:04:56.586Z,2664.00
2018-05-06T08:05:56.570Z,2664.00
2018-05-06T08:06:56.566Z,2664.00
2018-05-06T08:07:56.547Z,2660.00
2018-05-06T08:08:56.531Z,2660.00
2018-05-06T08:09:56.524Z,2656.00
2018-05-06T08:10:56.581Z,2652.00
2018-05-06T08:11:56.500Z,2652.00
2018-05-06T08:12:56.501Z,2648.00
2018-05-06T08:13:56.468Z,2648.00
2018-05-06T08:14:56.459Z,2656.00
2018-05-06T08:15:56.446Z,2652.00
2018-05-06T08:16:56.430Z,2652.00
2018-05-06T08:17:56.415Z,2656.00
2018-05-06T08:18:56.406Z,2652.00
2018-05-06T08:19:56.397Z,2656.00
2018-05-06T08:20:56.378Z,2652.00
2018-05-06T08:21:56.391Z,2656.00
2018-05-06T08:22:56.352Z,2652.00
2018-05-06T08:23:56.331Z,2636.00
2018-05-06T08:24:56.327Z,2644.00
2018-05-06T08:25:56.322Z,2648.00
2018-05-06T08:26:56.308Z,2640.00
2018-05-06T08:27:56.288Z,2636.00
2018-05-06T08:28:56.280Z,2632.00
2018-05-06T08:29:56.258Z,2628.00
2018-05-06T08:30:56.249Z,2616.00
2018-05-06T08:31:56.235Z,2612.00
2018-05-06T08:32:56.221Z,2604.00
2018-05-06T08:33:56.209Z,2608.00
2018-05-06T08:34:56.195Z,2596.00
2018-05-06T08:35:56.184Z,2592.00
2018-05-06T08:36:56.171Z,2580.00
2018-05-06T08:37:56.155Z,2576.00
2018-05-06T08:38:56.141Z,2568.00
2018-05-06T08:39:56.135Z,2572.00
2018-05-06T08:40:56.115Z,2568.00
2018-05-06T08:41:56.103Z,2568.00
2018-05-06T08:42:56.168Z,2560.00
2018-05-06T08:43:56.078Z,2568.00
2018-05-06T08:44:56.065Z,2560.00
2018-05-06T08:45:56.051Z,2568.00
2018-05-06T08:46:56.037Z,2572.00
2018-05-06T08:47:56.029Z,2572.00
2018-05-06T08:48:56.015Z,2568.00
2018-05-06T08:49:55.999Z,2560.00
2018-05-06T08:50:55.988Z,2556.00
2018-05-06T08:51:55.973Z,2552.00
2018-05-06T08:52:55.962Z,2548.00
2018-05-06T08:53:55.946Z,2544.00
2018-05-06T08:54:55.938Z,2544.00
2018-05-06T08:55:55.924Z,2540.00
2018-05-06T08:56:55.918Z,2540.00
2018-05-06T08:57:55.897Z,2536.00
2018-05-06T08:58:55.897Z,2532.00
2018-05-06T08:59:55.878Z,2536.00
2018-05-06T09:00:55.933Z,2536.00
2018-05-06T09:01:55.848Z,2540.00
2018-05-06T09:02:55.858Z,2528.00
2018-05-06T09:03:55.852Z,2516.00
2018-05-06T09:04:55.818Z,2508.00
2018-05-06T09:05:55.795Z,2500.00
2018-05-06T09:06:55.792Z,2492.00
2018-05-06T09:07:55.764Z,2500.00
2018-05-06T09:08:55.756Z,2492.00
2018-05-06T09:09:55.742Z,2480.00
2018-05-06T09:10:55.740Z,2476.00
2018-05-06T09:11:55.727Z,2464.00
2018-05-06T09:12:55.711Z,2460.00
2018-05-06T09:13:55.695Z,2460.00
2018-05-06T09:14:55.682Z,2460.00
2018-05-06T09:15:55.669Z,2456.00
2018-05-06T09:16:55.673Z,2440.00
2018-05-06T09:17:55.650Z,2440.00
2018-05-06T09:18:55.640Z,2432.00
2018-05-06T09:19:55.668Z,2424.00
2018-05-06T09:20:55.607Z,2424.00
2018-05-06T09:21:55.600Z,2424.00
2018-05-06T09:22:55.581Z,2428.00
2018-05-06T09:23:55.579Z,2428.00
2018-05-06T09:24:55.561Z,2432.00
2018-05-06T09:25:55.556Z,2428.00
2018-05-06T09:26:55.540Z,2428.00
2018-05-06T09:27:55.529Z,2436.00
2018-05-06T09:28:55.515Z,2428.00
2018-05-06T09:29:55.505Z,2428.00
2018-05-06T09:30:55.497Z,2424.00
2018-05-06T09:31:55.487Z,2424.00
2018-05-06T09:32:55.465Z,2424.00
2018-05-06T09:33:55.456Z,2432.00
2018-05-06T09:34:55.450Z,2420.00
2018-05-06T09:35:55.457Z,2420.00
2018-05-06T09:36:55.425Z,2424.00
2018-05-06T09:37:55.427Z,2420.00
2018-05-06T09:38:55.400Z,2424.00
2018-05-06T09:39:55.388Z,2420.00
2018-05-06T09:40:55.387Z,2416.00
2018-05-06T09:41:55.362Z,2412.00
2018-05-06T09:42:55.352Z,2408.00
2018-05-06T09:43:55.340Z,2416.00
2018-05-06T09:44:55.328Z,2416.00
2018-05-06T09:45:55.501Z,2416.00
2018-05-06T09:46:55.306Z,2416.00
2018-05-06T09:47:55.342Z,2424.00
2018-05-06T09:48:55.312Z,2420.00
2018-05-06T09:49:55.286Z,2420.00
2018-05-06T09:50:55.294Z,2416.00
2018-05-06T09:51:55.240Z,2420.00
2018-05-06T09:52:55.234Z,2416.00
2018-05-06T09:53:55.346Z,2412.00
2018-05-06T09:54:55.230Z,2408.00
2018-05-06T09:55:55.195Z,2408.00
2018-05-06T09:56:55.221Z,2408.00
2018-05-06T09:57:55.179Z,2408.00
2018-05-06T09:58:55.169Z,2416.00
2018-05-06T09:59:55.154Z,2408.00
2018-05-06T10:00:55.196Z,2412.00
2018-05-06T10:01:55.135Z,2416.00
2018-05-06T10:02:55.136Z,2420.00
2018-05-06T10:03:55.128Z,2416.00
2018-05-06T10:04:55.117Z,2420.00
2018-05-06T10:05:55.096Z,2420.00
2018-05-06T10:06:55.086Z,2424.00
2018-05-06T10:07:55.097Z,2428.00
2018-05-06T10:08:55.049Z,2424.00
2018-05-06T10:09:55.098Z,2432.00
2018-05-06T10:10:55.038Z,2436.00
2018-05-06T10:11:55.015Z,2436.00
2018-05-06T10:12:55.007Z,2440.00
2018-05-06T10:13:54.992Z,2444.00
2018-05-06T10:14:54.990Z,2444.00
2018-05-06T10:15:55.030Z,2452.00
2018-05-06T10:16:54.966Z,2452.00
2018-05-06T10:17:54.955Z,2452.00
2018-05-06T10:18:54.939Z,2456.00
2018-05-06T10:19:54.937Z,2456.00
2018-05-06T10:20:54.937Z,2452.00
2018-05-06T10:21:54.916Z,2452.00
2018-05-06T10:22:55.015Z,2460.00
2018-05-06T10:23:54.887Z,2460.00
2018-05-06T10:24:54.900Z,2468.00
2018-05-06T10:25:54.862Z,2476.00
2018-05-06T10:26:55.032Z,2472.00
2018-05-06T10:27:54.864Z,2488.00
2018-05-06T10:28:54.858Z,2476.00
2018-05-06T10:29:54.824Z,2480.00
2018-05-06T10:30:54.844Z,2476.00
2018-05-06T10:31:54.807Z,2476.00
2018-05-06T10:32:54.789Z,2476.00
2018-05-06T10:33:54.912Z,2480.00
2018-05-06T10:34:54.779Z,2492.00
2018-05-06T10:35:54.793Z,2500.00
2018-05-06T10:36:54.785Z,2504.00
2018-05-06T10:37:54.752Z,2500.00
2018-05-06T10:38:54.730Z,2504.00
2018-05-06T10:39:54.723Z,2512.00
2018-05-06T10:40:54.706Z,2512.00
2018-05-06T10:41:54.700Z,2520.00
2018-05-06T10:42:54.687Z,2520.00
2018-05-06T10:43:54.736Z,2516.00
2018-05-06T10:44:54.900Z,2516.00
2018-05-06T10:45:54.711Z,2516.00
2018-05-06T10:46:54.802Z,2512.00
2018-05-06T10:47:54.636Z,2516.00
2018-05-06T10:48:54.632Z,2524.00
2018-05-06T10:49:54.624Z,2528.00
2018-05-06T10:50:54.600Z,2532.00
2018-05-06T10:51:54.629Z,2540.00
2018-05-06T10:52:54.589Z,2548.00
2018-05-06T10:53:54.575Z,2552.00
2018-05-06T10:54:54.557Z,2556.00
2018-05-06T10:55:54.557Z,2540.00
2018-05-06T10:56:54.547Z,2540.00
2018-05-06T10:57:54.567Z,2536.00
2018-05-06T10:58:54.527Z,2540.00
2018-05-06T10:59:54.511Z,2540.00
2018-05-06T11:00:54.500Z,2540.00
2018-05-06T11:01:54.508Z,2552.00
2018-05-06T11:02:54.480Z,2552.00
2018-05-06T11:03:54.483Z,2552.00
2018-05-06T11:04:54.456Z,2556.00
2018-05-06T11:05:54.457Z,2556.00
2018-05-06T11:06:54.435Z,2564.00
2018-05-06T11:07:54.459Z,2572.00
2018-05-06T11:08:54.425Z,2580.00
2018-05-06T11:09:54.411Z,2588.00
2018-05-06T11:10:54.397Z,2584.00
2018-05-06T11:11:54.392Z,2588.00
2018-05-06T11:12:54.411Z,2584.00
2018-05-06T11:13:54.369Z,2588.00
2018-05-06T11:14:54.574Z,2584.00
2018-05-06T11:15:54.347Z,2584.00
2018-05-06T11:16:54.348Z,2588.00
2018-05-06T11:17:54.361Z,2588.00
2018-05-06T11:18:54.324Z,2596.00
2018-05-06T11:19:54.322Z,2600.00
2018-05-06T11:20:54.307Z,2604.00
2018-05-06T11:21:54.301Z,2604.00
2018-05-06T11:22:54.433Z,2596.00
2018-05-06T11:23:54.277Z,2588.00
2018-05-06T11:24:54.268Z,2592.00
2018-05-06T11:25:54.257Z,2592.00
2018-05-06T11:26:54.247Z,2588.00
2018-05-06T11:27:54.233Z,2588.00
2018-05-06T11:28:54.277Z,2592.00
2018-05-06T11:29:54.283Z,2592.00
2018-05-06T11:30:54.209Z,2596.00
2018-05-06T11:31:54.220Z,2600.00
2018-05-06T11:32:54.195Z,2604.00
2018-05-06T11:33:54.187Z,2616.00
2018-05-06T11:34:54.188Z,2616.00
2018-05-06T11:35:54.170Z,2612.00
2018-05-06T11:36:54.153Z,2612.00
2018-05-06T11:37:54.166Z,2620.00
2018-05-06T11:38:54.186Z,2624.00
2018-05-06T11:39:54.153Z,2632.00
2018-05-06T11:40:54.125Z,2636.00
2018-05-06T11:41:54.110Z,2640.00
2018-05-06T11:42:54.093Z,2644.00
2018-05-06T11:43:54.096Z,2648.00
2018-05-06T11:44:54.105Z,2660.00
2018-05-06T11:45:54.135Z,2668.00
2018-05-06T11:46:54.062Z,2672.00
2018-05-06T11:47:54.051Z,2664.00
2018-05-06T11:48:54.034Z,2672.00
2018-05-06T11:49:54.033Z,2676.00
2018-05-06T11:50:54.043Z,2676.00
2018-05-06T11:51:54.033Z,2680.00
2018-05-06T11:52:54.046Z,2676.00
2018-05-06T11:53:54.008Z,2684.00
2018-05-06T11:54:54.023Z,2692.00
2018-05-06T11:55:53.979Z,2696.00
2018-05-06T11:56:53.977Z,2700.00
2018-05-06T11:57:53.956Z,2708.00
2018-05-06T11:58:53.977Z,2716.00
2018-05-06T11:59:53.949Z,2716.00
2018-05-06T12:00:53.954Z,2720.00
2018-05-06T12:01:53.949Z,2720.00
2018-05-06T12:02:53.918Z,2724.00
2018-05-06T12:03:53.910Z,2716.00
2018-05-06T12:04:53.971Z,2716.00
2018-05-06T12:05:53.894Z,2716.00
2018-05-06T12:06:53.891Z,2716.00
2018-05-06T12:07:53.874Z,2716.00
2018-05-06T12:08:53.904Z,2712.00
2018-05-06T12:09:53.869Z,2720.00
2018-05-06T12:10:53.854Z,2732.00
2018-05-06T12:11:53.850Z,2740.00
2018-05-06T12:12:53.831Z,2744.00
2018-05-06T12:13:53.824Z,2752.00
2018-05-06T12:14:53.809Z,2764.00
2018-05-06T12:15:53.876Z,2772.00
2018-05-06T12:16:53.791Z,2776.00
2018-05-06T12:17:53.784Z,2784.00
2018-05-06T12:18:53.777Z,2800.00
2018-05-06T12:19:53.783Z,2808.00
2018-05-06T12:20:53.791Z,2816.00
2018-05-06T12:21:53.767Z,2820.00
2018-05-06T12:22:53.747Z,2828.00
2018-05-06T12:23:53.785Z,2844.00